createdAt,value
2023-04-11T00:01:50.161Z,100394.91
2023-04-11T00:04:20.622Z,100385.84
2023-04-11T00:06:48.818Z,100387.38
2023-04-11T00:09:17.171Z,100390.75
2023-04-11T00:11:44.800Z,100381.03
2023-04-11T00:14:12.714Z,100377.59
2023-04-11T00:16:41.638Z,100380.28
2023-04-11T00:19:09.662Z,100375.56
2023-04-11T00:21:40.203Z,100371.41
2023-04-11T00:24:08.532Z,100360.34
2023-04-11T00:26:36.131Z,100350.63
2023-04-11T00:29:03.444Z,100354.72
2023-04-11T00:31:31.391Z,100343.00
2023-04-11T00:33:58.839Z,100342.13
2023-04-11T00:36:27.131Z,100337.72
2023-04-11T00:38:55.332Z,100326.06
2023-04-11T00:41:24.350Z,100331.91
2023-04-11T00:43:51.533Z,100327.06
2023-04-11T00:46:19.220Z,100316.13
2023-04-11T00:48:47.111Z,100313.63
2023-04-11T00:51:19.425Z,100319.19
2023-04-11T00:53:47.091Z,100310.84
2023-04-11T00:56:14.761Z,100315.75
2023-04-11T00:58:44.352Z,100301.78
2023-04-11T01:01:11.949Z,100305.75
2023-04-11T01:03:39.778Z,100301.28
2023-04-11T01:06:13.183Z,100301.03
2023-04-11T01:08:43.423Z,100285.66
2023-04-11T01:11:13.739Z,100292.56
2023-04-11T01:13:42.342Z,100286.72
2023-04-11T01:16:10.346Z,100283.31
2023-04-11T01:18:37.887Z,100279.94
2023-04-11T01:21:05.675Z,100287.44
2023-04-11T01:23:34.401Z,100275.38
2023-04-11T01:26:01.907Z,100271.44
2023-04-11T01:28:29.176Z,100270.56
2023-04-11T01:30:57.889Z,100268.44
2023-04-11T01:33:25.387Z,100264.28
2023-04-11T01:35:52.980Z,100257.09
2023-04-11T01:38:21.325Z,100266.06
2023-04-11T01:40:49.067Z,100261.31
2023-04-11T01:43:16.624Z,100260.38
2023-04-11T01:45:44.371Z,100255.19
2023-04-11T01:48:11.776Z,100252.50
2023-04-11T01:50:39.451Z,100247.09
2023-04-11T01:53:06.678Z,100240.94
2023-04-11T01:55:34.220Z,100236.66
2023-04-11T01:58:01.410Z,100229.19
2023-04-11T02:00:28.949Z,100223.13
2023-04-11T02:02:56.424Z,100228.59
2023-04-11T02:05:24.133Z,100225.31
2023-04-11T02:07:51.320Z,100220.34
2023-04-11T02:10:19.469Z,100217.88
2023-04-11T02:12:46.662Z,100209.53
2023-04-11T02:15:14.208Z,100204.94
2023-04-11T02:17:45.609Z,100208.63
2023-04-11T02:20:14.648Z,100204.41
2023-04-11T02:22:41.993Z,100210.00
2023-04-11T02:25:09.816Z,100203.28
2023-04-11T02:27:37.126Z,100193.59
2023-04-11T02:30:06.244Z,100195.69
2023-04-11T02:32:40.815Z,100197.19
2023-04-11T02:35:08.820Z,100189.19
2023-04-11T02:37:36.682Z,100178.81
2023-04-11T02:40:05.065Z,100160.66
2023-04-11T02:42:32.441Z,100172.03
2023-04-11T02:45:00.391Z,100161.66
2023-04-11T02:47:29.408Z,100157.00
2023-04-11T02:50:01.675Z,100147.69
2023-04-11T02:52:34.701Z,100159.84
2023-04-11T02:55:02.276Z,100152.59
2023-04-11T02:57:29.523Z,100146.84
2023-04-11T02:59:58.018Z,100157.69
2023-04-11T03:02:34.165Z,100142.22
2023-04-11T03:05:05.334Z,100148.41
2023-04-11T03:07:38.583Z,100142.81
2023-04-11T03:10:07.351Z,100148.50
2023-04-11T03:12:34.657Z,100138.63
2023-04-11T03:15:05.437Z,100142.75
2023-04-11T03:17:34.143Z,100135.19
2023-04-11T03:20:02.464Z,100134.28
2023-04-11T03:22:30.937Z,100123.59
2023-04-11T03:24:58.889Z,100117.63
2023-04-11T03:27:27.191Z,100121.34
2023-04-11T03:29:59.414Z,100120.81
2023-04-11T03:32:39.099Z,100114.63
2023-04-11T03:35:07.226Z,100121.81
2023-04-11T03:37:35.416Z,100122.69
2023-04-11T03:40:04.394Z,100111.88
2023-04-11T03:42:32.021Z,100111.13
2023-04-11T03:45:01.483Z,100106.53
2023-04-11T03:47:28.841Z,100110.09
2023-04-11T03:49:56.594Z,100093.31
2023-04-11T03:52:23.875Z,100102.22
2023-04-11T03:54:51.833Z,100093.31
2023-04-11T03:57:19.493Z,100099.31
2023-04-11T03:59:48.024Z,100090.75
2023-04-11T04:02:16.170Z,100080.28
2023-04-11T04:04:55.218Z,100085.38
2023-04-11T04:07:26.602Z,100082.03
2023-04-11T04:10:00.520Z,100070.03
2023-04-11T04:12:27.949Z,100054.06
2023-04-11T04:15:18.576Z,100049.94
2023-04-11T04:17:48.837Z,100055.19
2023-04-11T04:20:36.431Z,100050.59
2023-04-11T04:23:06.144Z,100048.69
2023-04-11T04:25:53.053Z,100047.69
2023-04-11T04:28:26.179Z,100039.41
2023-04-11T04:30:58.146Z,100035.41
2023-04-11T04:33:29.034Z,100039.28
2023-04-11T04:36:00.262Z,100033.50
2023-04-11T04:38:32.122Z,100039.66
2023-04-11T04:41:00.983Z,100038.66
2023-04-11T04:43:32.380Z,100032.50
2023-04-11T04:46:11.572Z,100036.25
2023-04-11T04:48:44.922Z,100032.66
2023-04-11T04:51:12.469Z,100036.06
2023-04-11T04:53:40.560Z,100017.13
2023-04-11T04:56:11.911Z,100026.97
2023-04-11T04:58:42.132Z,100017.34
2023-04-11T05:01:13.190Z,100023.59
2023-04-11T05:03:40.691Z,100025.66
2023-04-11T05:06:16.988Z,100022.75
2023-04-11T05:08:48.673Z,100016.94
2023-04-11T05:11:16.551Z,100020.06
2023-04-11T05:13:43.817Z,100013.84
2023-04-11T05:16:11.678Z,100013.69
2023-04-11T05:18:38.951Z,100006.50
2023-04-11T05:21:06.765Z,100001.38
2023-04-11T05:23:38.134Z,100001.72
2023-04-11T05:26:07.888Z,100011.53
2023-04-11T05:28:36.402Z,100000.16
2023-04-11T05:31:08.947Z,100010.53
2023-04-11T05:33:39.435Z,99996.78
2023-04-11T05:36:08.439Z,99992.66
2023-04-11T05:38:35.753Z,99985.13
2023-04-11T05:41:03.255Z,99992.13
2023-04-11T05:43:30.523Z,99988.31
2023-04-11T05:46:01.968Z,99985.31
2023-04-11T05:48:29.605Z,99988.31
2023-04-11T05:50:58.384Z,99985.97
2023-04-11T05:53:25.638Z,99977.84
2023-04-11T05:55:53.192Z,99992.16
2023-04-11T05:58:20.382Z,99975.84
2023-04-11T06:00:50.001Z,99983.69
2023-04-11T06:03:17.673Z,99976.41
2023-04-11T06:05:45.492Z,99969.00
2023-04-11T06:08:12.798Z,99972.47
2023-04-11T06:10:40.292Z,99966.63
2023-04-11T06:13:10.384Z,99954.41
2023-04-11T06:15:38.353Z,99954.22
2023-04-11T06:18:05.666Z,99938.59
2023-04-11T06:20:33.218Z,99938.56
2023-04-11T06:23:01.504Z,99940.13
2023-04-11T06:25:29.246Z,99921.81
2023-04-11T06:27:56.558Z,99918.16
2023-04-11T06:30:24.348Z,99917.88
2023-04-11T06:32:51.702Z,99914.94
2023-04-11T06:35:20.563Z,99927.06
2023-04-11T06:37:47.848Z,99917.38
2023-04-11T06:40:17.295Z,99913.84
2023-04-11T06:42:44.623Z,99912.91
2023-04-11T06:45:12.372Z,99909.25
2023-04-11T06:47:39.843Z,99895.25
2023-04-11T06:50:08.045Z,99902.34
2023-04-11T06:52:35.309Z,99891.03
2023-04-11T06:55:02.917Z,99894.22
2023-04-11T06:57:30.318Z,99884.50
2023-04-11T06:59:57.772Z,99883.84
2023-04-11T07:02:25.900Z,99878.34
2023-04-11T07:04:53.644Z,99888.75
2023-04-11T07:07:21.415Z,99865.78
2023-04-11T07:09:48.986Z,99874.09
2023-04-11T07:12:16.235Z,99877.50
2023-04-11T07:14:43.729Z,99880.25
2023-04-11T07:17:10.955Z,99871.84
2023-04-11T07:19:38.412Z,99878.47
2023-04-11T07:22:05.874Z,99884.53
2023-04-11T07:24:33.635Z,99861.13
2023-04-11T07:27:01.940Z,99863.91
2023-04-11T07:29:29.674Z,99863.53
2023-04-11T07:31:56.978Z,99874.94
2023-04-11T07:34:24.661Z,99872.44
2023-04-11T07:36:52.081Z,99863.63
2023-04-11T07:39:19.673Z,99861.72
2023-04-11T07:41:46.977Z,99872.69
2023-04-11T07:44:14.472Z,99870.38
2023-04-11T07:46:41.741Z,99860.06
2023-04-11T07:49:09.249Z,99861.91
2023-04-11T07:51:36.581Z,99859.88
2023-04-11T07:54:04.154Z,99843.91
2023-04-11T07:56:31.368Z,99857.44
2023-04-11T07:58:58.935Z,99842.44
2023-04-11T08:01:27.101Z,99839.16
2023-04-11T08:03:55.833Z,99832.75
2023-04-11T08:06:23.585Z,99827.28
2023-04-11T08:08:51.498Z,99839.63
2023-04-11T08:11:18.867Z,99837.59
2023-04-11T08:13:46.391Z,99820.94
2023-04-11T08:16:15.691Z,99817.66
2023-04-11T08:18:43.492Z,99819.00
2023-04-11T08:21:11.655Z,99816.31
2023-04-11T08:23:39.891Z,99809.16
2023-04-11T08:26:08.223Z,99822.97
2023-04-11T08:28:36.341Z,99814.06
2023-04-11T08:31:05.480Z,99819.50
2023-04-11T08:33:33.491Z,99795.41
2023-04-11T08:36:00.760Z,99800.97
2023-04-11T08:38:28.450Z,99797.94
2023-04-11T08:40:55.971Z,99782.63
2023-04-11T08:43:23.963Z,99777.34
2023-04-11T08:45:51.270Z,99772.47
2023-04-11T08:48:21.957Z,99781.16
2023-04-11T08:50:49.132Z,99766.97
2023-04-11T08:53:18.961Z,99756.44
2023-04-11T08:55:47.323Z,99768.19
2023-04-11T08:58:14.903Z,99758.97
2023-04-11T09:00:43.019Z,99752.50
2023-04-11T09:03:12.286Z,99758.66
2023-04-11T09:05:41.888Z,99742.59
2023-04-11T09:08:11.270Z,99750.19
2023-04-11T09:10:40.021Z,99756.81
2023-04-11T09:13:22.268Z,99741.25
2023-04-11T09:16:10.562Z,99735.53
2023-04-11T09:18:43.623Z,99724.72
2023-04-11T09:21:13.497Z,99721.19
2023-04-11T09:23:41.398Z,99723.47
2023-04-11T09:26:10.451Z,99728.94
2023-04-11T09:28:54.785Z,99717.97
2023-04-11T09:31:22.383Z,99709.31
2023-04-11T09:33:55.316Z,99719.19
2023-04-11T09:36:24.978Z,99690.81
2023-04-11T09:38:53.934Z,99705.78
2023-04-11T09:41:34.773Z,99690.06
2023-04-11T09:44:02.723Z,99672.09
2023-04-11T09:46:30.083Z,99695.25
2023-04-11T09:48:57.682Z,99709.69
2023-04-11T09:51:35.893Z,99673.03
2023-04-11T09:54:05.884Z,99679.63
2023-04-11T09:56:37.200Z,99671.44
2023-04-11T09:59:05.333Z,99667.00
2023-04-11T10:01:33.464Z,99672.91
2023-04-11T10:04:01.589Z,99659.94
2023-04-11T10:06:46.933Z,99660.16
2023-04-11T10:09:15.627Z,99658.22
2023-04-11T10:11:44.116Z,99659.91
2023-04-11T10:14:44.332Z,99635.31
2023-04-11T10:17:18.941Z,99656.47
2023-04-11T10:19:51.640Z,99637.16
2023-04-11T10:22:43.214Z,99630.31
2023-04-11T10:25:22.001Z,99635.31
2023-04-11T10:28:01.137Z,99626.84
2023-04-11T10:30:41.164Z,99638.31
2023-04-11T10:33:19.702Z,99625.31
2023-04-11T10:36:03.078Z,99635.34
2023-04-11T10:38:48.780Z,99641.25
2023-04-11T10:41:27.680Z,99612.06
2023-04-11T10:44:21.286Z,99623.22
2023-04-11T10:46:54.358Z,99625.25
2023-04-11T10:49:32.841Z,99597.56
2023-04-11T10:52:17.643Z,99600.47
2023-04-11T10:54:48.737Z,99619.56
2023-04-11T10:57:16.485Z,99615.41
2023-04-11T10:59:49.660Z,99599.16
2023-04-11T11:02:18.277Z,99582.63
2023-04-11T11:04:47.156Z,99579.00
2023-04-11T11:07:18.040Z,99589.19
2023-04-11T11:09:51.304Z,99577.41
2023-04-11T11:12:19.051Z,99592.28
2023-04-11T11:14:47.454Z,99584.72
2023-04-11T11:17:16.880Z,99585.78
2023-04-11T11:19:45.522Z,99578.53
2023-04-11T11:22:17.609Z,99590.97
2023-04-11T11:24:44.936Z,99567.13
2023-04-11T11:27:24.192Z,99580.56
2023-04-11T11:29:52.982Z,99561.16
2023-04-11T11:32:30.061Z,99560.97
2023-04-11T11:37:45.321Z,99565.06
2023-04-11T11:40:13.248Z,99544.66
2023-04-11T11:42:41.329Z,99547.16
2023-04-11T11:45:19.989Z,99542.91
2023-04-11T11:47:49.731Z,99559.59
2023-04-11T11:50:31.483Z,99544.75
2023-04-11T11:53:14.216Z,99557.69
2023-04-11T11:55:42.266Z,99542.75
2023-04-11T11:58:09.811Z,99544.91
2023-04-11T12:00:39.393Z,99541.06
2023-04-11T12:03:11.901Z,99540.81
2023-04-11T12:05:39.463Z,99551.38
2023-04-11T12:08:07.844Z,99557.84
2023-04-11T12:10:43.287Z,99537.03
2023-04-11T12:13:16.609Z,99540.91
2023-04-11T12:15:46.505Z,99539.41
2023-04-11T12:18:14.359Z,99539.25
2023-04-11T12:20:41.853Z,99526.88
2023-04-11T12:23:09.438Z,99530.84
2023-04-11T12:25:37.013Z,99529.44
2023-04-11T12:28:04.506Z,99531.84
2023-04-11T12:30:31.751Z,99520.81
2023-04-11T12:32:59.396Z,99513.16
2023-04-11T12:35:26.660Z,99514.75
2023-04-11T12:37:54.170Z,99509.13
2023-04-11T12:40:21.535Z,99495.69
2023-04-11T12:42:56.990Z,99533.47
2023-04-11T12:45:26.255Z,99510.47
2023-04-11T12:47:54.236Z,99492.69
2023-04-11T12:50:23.868Z,99517.66
2023-04-11T12:52:52.538Z,99496.56
2023-04-11T12:55:19.961Z,99506.78
2023-04-11T12:57:47.552Z,99495.47
2023-04-11T13:00:15.426Z,99482.63
2023-04-11T13:02:45.299Z,99493.91
2023-04-11T13:05:17.105Z,99498.53
2023-04-11T13:07:45.408Z,99516.78
2023-04-11T13:10:16.825Z,99481.38
2023-04-11T13:12:45.557Z,99486.44
2023-04-11T13:15:15.040Z,99479.94
2023-04-11T13:17:43.380Z,99473.81
2023-04-11T13:20:18.177Z,99468.00
2023-04-11T13:22:46.240Z,99461.72
2023-04-11T13:25:13.461Z,99470.97
2023-04-11T13:27:42.205Z,99499.50
2023-04-11T13:30:10.722Z,99489.47
2023-04-11T13:32:38.420Z,99463.19
2023-04-11T13:35:06.683Z,99471.03
2023-04-11T13:37:34.198Z,99460.84
2023-04-11T13:40:01.608Z,99476.09
2023-04-11T13:42:29.232Z,99454.72
2023-04-11T13:44:56.417Z,99475.22
2023-04-11T13:47:24.024Z,99458.88
2023-04-11T13:49:51.276Z,99442.94
2023-04-11T13:52:18.922Z,99456.31
2023-04-11T13:54:46.247Z,99438.03
2023-04-11T13:57:13.786Z,99438.22
2023-04-11T13:59:41.160Z,99454.34
2023-04-11T14:02:08.812Z,99442.31
2023-04-11T14:04:36.283Z,99435.78
2023-04-11T14:07:03.959Z,99438.66
2023-04-11T14:09:31.255Z,99435.31
2023-04-11T14:11:58.797Z,99439.50
2023-04-11T14:14:26.370Z,99428.78
2023-04-11T14:16:54.018Z,99446.38
2023-04-11T14:19:22.775Z,99421.97
2023-04-11T14:21:51.698Z,99437.31
2023-04-11T14:24:22.449Z,99422.31
2023-04-11T14:26:50.350Z,99430.53
2023-04-11T14:29:17.816Z,99420.66
2023-04-11T14:31:45.482Z,99418.84
2023-04-11T14:34:12.809Z,99422.28
2023-04-11T14:36:40.447Z,99431.38
2023-04-11T14:39:08.301Z,99427.09
2023-04-11T14:41:36.070Z,99425.16
2023-04-11T14:44:03.351Z,99421.25
2023-04-11T14:46:31.148Z,99420.06
2023-04-11T14:48:58.417Z,99420.88
2023-04-11T14:51:27.752Z,99419.91
2023-04-11T14:53:59.843Z,99425.22
2023-04-11T14:56:27.509Z,99421.56
2023-04-11T14:58:55.056Z,99425.63
2023-04-11T15:01:22.809Z,99411.66
2023-04-11T15:03:50.201Z,99399.47
2023-04-11T15:06:18.248Z,99402.97
2023-04-11T15:08:45.847Z,99401.41
2023-04-11T15:11:13.496Z,99414.78
2023-04-11T15:13:40.924Z,99416.25
2023-04-11T15:16:08.731Z,99402.56
2023-04-11T15:18:35.938Z,99401.97
2023-04-11T15:21:03.598Z,99405.34
2023-04-11T15:23:31.164Z,99408.31
2023-04-11T15:26:00.463Z,99398.81
2023-04-11T15:28:31.986Z,99410.81
2023-04-11T15:30:59.950Z,99408.72
2023-04-11T15:33:27.817Z,99394.97
2023-04-11T15:35:57.802Z,99390.41
2023-04-11T15:38:26.840Z,99403.41
2023-04-11T15:40:56.324Z,99388.19
2023-04-11T15:43:24.246Z,99388.22
2023-04-11T15:45:53.704Z,99398.41
2023-04-11T15:48:21.040Z,99396.25
2023-04-11T15:50:48.907Z,99379.25
2023-04-11T15:53:16.289Z,99384.34
2023-04-11T15:55:44.195Z,99374.63
2023-04-11T15:58:11.635Z,99378.97
2023-04-11T16:00:40.216Z,99379.94
2023-04-11T16:03:08.901Z,99380.84
2023-04-11T16:05:40.266Z,99383.47
2023-04-11T16:08:07.965Z,99394.19
2023-04-11T16:10:35.587Z,99395.13
2023-04-11T16:13:03.225Z,99385.09
2023-04-11T16:15:30.841Z,99396.16
2023-04-11T16:17:58.118Z,99399.81
2023-04-11T16:20:25.788Z,99397.03
2023-04-11T16:22:53.057Z,99399.38
2023-04-11T16:25:21.575Z,99400.28
2023-04-11T16:27:51.167Z,99403.97
2023-04-11T16:30:19.139Z,99396.34
2023-04-11T16:32:46.547Z,99399.06
2023-04-11T16:35:14.162Z,99398.84
2023-04-11T16:37:41.904Z,99395.53
2023-04-11T16:40:12.665Z,99401.31
2023-04-11T16:42:40.481Z,99410.53
2023-04-11T16:45:09.870Z,99393.75
2023-04-11T16:47:37.817Z,99396.03
2023-04-11T16:50:06.212Z,99402.00
2023-04-11T16:52:33.918Z,99411.22
2023-04-11T16:55:03.007Z,99418.75
2023-04-11T16:57:30.326Z,99428.69
2023-04-11T16:59:57.850Z,99428.66
2023-04-11T17:02:25.449Z,99444.91
2023-04-11T17:04:53.180Z,99455.31
2023-04-11T17:07:20.686Z,99449.88
2023-04-11T17:09:49.312Z,99450.44
2023-04-11T17:12:16.589Z,99456.59
2023-04-11T17:14:45.736Z,99458.16
2023-04-11T17:17:13.116Z,99449.84
2023-04-11T17:19:42.228Z,99453.56
2023-04-11T17:22:09.473Z,99459.22
2023-04-11T17:24:37.138Z,99455.50
2023-04-11T17:27:04.532Z,99472.63
2023-04-11T17:29:32.421Z,99475.47
2023-04-11T17:31:59.764Z,99480.41
2023-04-11T17:34:27.343Z,99489.72
2023-04-11T17:36:54.880Z,99509.09
2023-04-11T17:39:23.026Z,99501.84
2023-04-11T17:41:50.402Z,99518.97
2023-04-11T17:44:18.168Z,99519.44
2023-04-11T17:46:45.705Z,99510.84
2023-04-11T17:49:13.342Z,99523.75
2023-04-11T17:51:48.802Z,99520.81
2023-04-11T17:55:16.575Z,99519.47
2023-04-11T17:58:44.338Z,99524.78
2023-04-11T18:01:12.200Z,99543.31
2023-04-11T18:03:41.314Z,99545.19
2023-04-11T18:06:09.405Z,99537.81
2023-04-11T18:11:11.074Z,99530.03
2023-04-11T18:13:38.388Z,99551.59
2023-04-11T18:16:06.365Z,99548.44
2023-04-11T18:18:33.757Z,99561.88
2023-04-11T18:21:06.649Z,99555.31
2023-04-11T18:23:35.725Z,99552.22
2023-04-11T18:26:03.401Z,99571.22
2023-04-11T18:28:30.825Z,99559.84
2023-04-11T18:30:58.433Z,99571.59
2023-04-11T18:33:26.232Z,99589.16
2023-04-11T18:35:54.054Z,99599.78
2023-04-11T18:38:21.392Z,99591.47
2023-04-11T18:40:49.484Z,99596.69
2023-04-11T18:43:17.625Z,99594.22
2023-04-11T18:45:46.975Z,99602.31
2023-04-11T18:48:14.581Z,99607.19
2023-04-11T18:50:44.664Z,99618.31
2023-04-11T18:53:13.532Z,99608.06
2023-04-11T18:55:41.983Z,99609.06
2023-04-11T18:58:11.033Z,99602.50
2023-04-11T19:00:40.136Z,99595.09
2023-04-11T19:03:15.419Z,99607.91
2023-04-11T19:05:45.471Z,99605.22
2023-04-11T19:08:13.203Z,99595.09
2023-04-11T19:10:41.218Z,99589.06
2023-04-11T19:13:08.957Z,99577.59
2023-04-11T19:15:37.107Z,99577.09
2023-04-11T19:18:06.553Z,99561.09
2023-04-11T19:20:36.592Z,99569.84
2023-04-11T19:23:05.974Z,99574.06
2023-04-11T19:25:34.801Z,99556.06
2023-04-11T19:28:03.124Z,99564.84
2023-04-11T19:30:30.952Z,99569.69
2023-04-11T19:32:58.891Z,99585.00
2023-04-11T19:35:27.383Z,99578.94
2023-04-11T19:37:54.719Z,99576.09
2023-04-11T19:40:25.839Z,99564.25
2023-04-11T19:42:53.258Z,99576.16
2023-04-11T19:45:22.203Z,99589.16
2023-04-11T19:47:49.552Z,99580.09
2023-04-11T19:50:17.806Z,99582.13
2023-04-11T19:52:45.383Z,99583.13
2023-04-11T19:55:12.993Z,99594.06
2023-04-11T19:57:41.221Z,99591.50
2023-04-11T20:00:14.467Z,99600.16
2023-04-11T20:02:46.776Z,99602.84
2023-04-11T20:05:16.506Z,99589.03
2023-04-11T20:07:44.119Z,99607.19
2023-04-11T20:10:13.071Z,99613.38
2023-04-11T20:12:40.887Z,99617.06
2023-04-11T20:15:09.404Z,99599.25
2023-04-11T20:17:36.872Z,99596.25
2023-04-11T20:20:08.976Z,99608.53
2023-04-11T20:22:39.371Z,99593.22
2023-04-11T20:25:08.025Z,99604.00
2023-04-11T20:27:35.501Z,99611.34
2023-04-11T20:30:10.384Z,99601.38
2023-04-11T20:32:38.487Z,99588.94
2023-04-11T20:35:08.753Z,99601.31
2023-04-11T20:37:36.572Z,99613.97
2023-04-11T20:40:10.257Z,99603.38
2023-04-11T20:42:46.036Z,99592.97
2023-04-11T20:45:16.308Z,99588.78
2023-04-11T20:47:50.267Z,99576.34
2023-04-11T20:50:19.378Z,99580.38
2023-04-11T20:52:50.533Z,99594.44
2023-04-11T20:55:18.428Z,99598.94
2023-04-11T20:57:45.641Z,99588.75
2023-04-11T21:00:20.096Z,99608.75
2023-04-11T21:02:49.948Z,99606.75
2023-04-11T21:05:19.710Z,99611.47
2023-04-11T21:07:46.997Z,99615.84
2023-04-11T21:10:15.765Z,99609.53
2023-04-11T21:12:43.342Z,99620.19
2023-04-11T21:15:11.889Z,99614.16
2023-04-11T21:17:39.826Z,99611.63
2023-04-11T21:20:18.102Z,99614.44
2023-04-11T21:22:53.129Z,99612.38
2023-04-11T21:25:21.473Z,99608.69
2023-04-11T21:27:49.896Z,99612.47
2023-04-11T21:30:17.705Z,99614.34
2023-04-11T21:32:44.998Z,99615.53
2023-04-11T21:35:12.757Z,99630.53
2023-04-11T21:37:40.008Z,99623.34
2023-04-11T21:40:08.168Z,99629.38
2023-04-11T21:42:35.361Z,99629.47
2023-04-11T21:45:02.989Z,99629.19
2023-04-11T21:47:30.377Z,99626.44
2023-04-11T21:49:58.002Z,99624.63
2023-04-11T21:52:25.460Z,99621.16
2023-04-11T21:54:53.097Z,99619.78
2023-04-11T21:57:20.353Z,99634.34
2023-04-11T21:59:48.027Z,99636.34
2023-04-11T22:02:15.395Z,99634.00
2023-04-11T22:05:01.230Z,99623.56
2023-04-11T22:07:39.056Z,99617.72
2023-04-11T22:10:10.009Z,99615.31
2023-04-11T22:12:38.072Z,99626.03
2023-04-11T22:15:06.660Z,99630.94
2023-04-11T22:17:34.770Z,99634.28
2023-04-11T22:20:05.024Z,99612.03
2023-04-11T22:22:32.430Z,99624.19
2023-04-11T22:25:00.166Z,99624.75
2023-04-11T22:27:27.561Z,99626.66
2023-04-11T22:29:57.911Z,99636.88
2023-04-11T22:32:25.236Z,99627.81
2023-04-11T22:34:52.786Z,99630.53
2023-04-11T22:37:20.066Z,99642.03
2023-04-11T22:39:47.569Z,99629.19
2023-04-11T22:42:14.764Z,99635.31
2023-04-11T22:44:42.342Z,99639.06
2023-04-11T22:47:13.499Z,99639.78
2023-04-11T22:49:41.161Z,99649.16
2023-04-11T22:52:10.762Z,99645.69
2023-04-11T22:54:38.619Z,99652.28
2023-04-11T22:57:06.452Z,99646.69
2023-04-11T22:59:33.954Z,99656.56
2023-04-11T23:02:01.250Z,99645.31
2023-04-11T23:04:31.129Z,99644.88
2023-04-11T23:06:58.446Z,99659.66
2023-04-11T23:09:26.477Z,99640.53
2023-04-11T23:11:53.700Z,99642.69
2023-04-11T23:14:22.414Z,99646.22
2023-04-11T23:16:49.923Z,99647.41
2023-04-11T23:19:18.951Z,99641.22
2023-04-11T23:21:46.288Z,99642.16
2023-04-11T23:24:14.116Z,99639.66
2023-04-11T23:26:42.386Z,99632.53
2023-04-11T23:29:09.906Z,99630.88
2023-04-11T23:31:37.101Z,99629.25
2023-04-11T23:34:04.665Z,99627.53
2023-04-11T23:36:32.858Z,99637.34
2023-04-11T23:39:02.251Z,99638.34
2023-04-11T23:41:30.368Z,99631.31
2023-04-11T23:43:58.241Z,99632.34
2023-04-11T23:46:26.370Z,99638.41
2023-04-11T23:48:54.127Z,99633.47
2023-04-11T23:51:21.625Z,99628.94
2023-04-11T23:53:49.880Z,99623.13
2023-04-11T23:56:17.458Z,99640.34
2023-04-11T23:58:45.202Z,99640.97
